createdAt,value
2023-02-11T00:02:38.423Z,7.65
2023-02-11T00:05:41.280Z,6.78
2023-02-11T00:08:44.115Z,6.68
2023-02-11T00:11:46.912Z,6.72
2023-02-11T00:14:52.112Z,6.63
2023-02-11T00:17:54.939Z,6.80
2023-02-11T00:20:57.779Z,5.88
2023-02-11T00:24:02.310Z,6.40
2023-02-11T00:27:05.238Z,6.03
2023-02-11T00:30:11.456Z,6.10
2023-02-11T00:33:14.407Z,5.70
2023-02-11T00:36:19.596Z,6.05
2023-02-11T00:39:23.155Z,5.97
2023-02-11T00:42:26.025Z,6.32
2023-02-11T00:45:30.684Z,6.30
2023-02-11T00:48:33.964Z,6.18
2023-02-11T00:51:36.883Z,5.10
2023-02-11T00:54:40.040Z,6.00
2023-02-11T00:57:43.202Z,6.55
2023-02-11T01:00:47.427Z,5.78
2023-02-11T01:03:50.601Z,5.57
2023-02-11T01:06:53.470Z,5.70
2023-02-11T01:09:56.703Z,5.90
2023-02-11T01:12:59.948Z,5.93
2023-02-11T01:16:05.167Z,5.80
2023-02-11T01:19:08.136Z,5.88
2023-02-11T01:22:11.016Z,5.95
2023-02-11T01:25:14.120Z,5.90
2023-02-11T01:28:18.802Z,6.10
2023-02-11T01:31:23.187Z,5.75
2023-02-11T01:34:26.050Z,5.78
2023-02-11T01:37:29.309Z,6.00
2023-02-11T01:40:33.504Z,5.53
2023-02-11T01:43:40.347Z,5.50
2023-02-11T01:46:44.699Z,5.50
2023-02-11T01:49:52.040Z,5.88
2023-02-11T01:53:15.512Z,5.43
2023-02-11T01:56:39.756Z,6.03
2023-02-11T01:59:49.011Z,6.00
2023-02-11T02:02:57.687Z,6.18
2023-02-11T02:06:08.600Z,5.57
2023-02-11T02:09:18.336Z,5.57
2023-02-11T02:12:21.433Z,5.53
2023-02-11T02:15:31.496Z,5.40
2023-02-11T02:18:44.019Z,5.70
2023-02-11T02:22:02.552Z,5.95
2023-02-11T02:25:36.623Z,5.50
2023-02-11T02:29:07.534Z,5.57
2023-02-11T02:32:31.292Z,4.90
2023-02-11T02:35:43.575Z,5.20
2023-02-11T02:38:51.935Z,5.50
2023-02-11T02:41:56.709Z,5.30
2023-02-11T02:44:59.798Z,5.40
2023-02-11T02:48:04.580Z,5.00
2023-02-11T02:51:18.732Z,5.95
2023-02-11T02:54:42.071Z,5.57
2023-02-11T02:58:04.435Z,5.30
2023-02-11T03:01:17.813Z,4.88
2023-02-11T03:04:27.737Z,5.18
2023-02-11T03:07:39.011Z,5.22
2023-02-11T03:10:45.433Z,5.28
2023-02-11T03:13:50.691Z,5.03
2023-02-11T03:16:58.576Z,5.20
2023-02-11T03:20:04.308Z,5.50
2023-02-11T03:23:12.635Z,5.10
2023-02-11T03:26:19.552Z,5.28
2023-02-11T03:29:32.230Z,4.68
2023-02-11T03:32:39.559Z,4.72
2023-02-11T03:35:52.255Z,5.07
2023-02-11T03:38:59.722Z,5.28
2023-02-11T03:42:05.172Z,4.88
2023-02-11T03:45:11.856Z,4.90
2023-02-11T03:48:19.115Z,5.35
2023-02-11T03:51:25.963Z,5.05
2023-02-11T03:54:32.348Z,4.82
2023-02-11T03:57:35.322Z,4.88
2023-02-11T04:00:41.048Z,5.28
2023-02-11T04:03:43.944Z,5.03
2023-02-11T04:06:48.265Z,4.53
2023-02-11T04:09:51.124Z,4.53
2023-02-11T04:12:53.961Z,5.13
2023-02-11T04:15:59.218Z,4.60
2023-02-11T04:19:02.617Z,4.80
2023-02-11T04:22:07.183Z,5.03
2023-02-11T04:25:10.935Z,4.50
2023-02-11T04:28:13.935Z,4.63
2023-02-11T04:31:16.895Z,5.03
2023-02-11T04:34:19.858Z,4.47
2023-02-11T04:37:24.016Z,4.50
2023-02-11T04:40:26.871Z,4.20
2023-02-11T04:43:30.067Z,4.28
2023-02-11T04:46:32.907Z,4.60
2023-02-11T04:49:35.777Z,5.05
2023-02-11T04:52:40.083Z,4.75
2023-02-11T04:55:42.938Z,4.35
2023-02-11T04:58:45.831Z,4.38
2023-02-11T05:01:49.531Z,4.55
2023-02-11T05:04:52.406Z,4.55
2023-02-11T05:07:56.616Z,4.40
2023-02-11T05:11:02.121Z,4.32
2023-02-11T05:14:05.055Z,4.25
2023-02-11T05:17:08.204Z,4.70
2023-02-11T05:20:12.155Z,4.07
2023-02-11T05:23:16.645Z,4.53
2023-02-11T05:26:20.017Z,4.30
2023-02-11T05:29:22.910Z,4.50
2023-02-11T05:32:25.927Z,4.90
2023-02-11T05:35:28.736Z,4.43
2023-02-11T05:38:33.358Z,4.40
2023-02-11T05:41:36.175Z,4.88
2023-02-11T05:44:39.182Z,4.43
2023-02-11T05:47:42.036Z,4.80
2023-02-11T05:50:45.494Z,4.47
2023-02-11T05:53:49.699Z,4.70
2023-02-11T05:56:52.676Z,4.20
2023-02-11T05:59:55.510Z,4.45
2023-02-11T06:02:58.435Z,4.43
2023-02-11T06:06:01.260Z,4.10
2023-02-11T06:09:05.627Z,3.92
2023-02-11T06:12:08.763Z,4.28
2023-02-11T06:15:11.878Z,4.45
2023-02-11T06:18:14.690Z,3.78
2023-02-11T06:21:17.524Z,4.70
2023-02-11T06:24:47.739Z,4.10
2023-02-11T06:27:44.987Z,4.00
2023-02-11T06:30:47.997Z,4.20
2023-02-11T06:33:51.006Z,4.90
2023-02-11T06:36:53.844Z,4.65
2023-02-11T06:39:58.341Z,5.07
2023-02-11T06:43:01.340Z,4.65
2023-02-11T06:46:04.403Z,4.47
2023-02-11T06:49:07.295Z,4.25
2023-02-11T06:52:10.203Z,4.20
2023-02-11T06:55:14.444Z,4.32
2023-02-11T06:58:17.328Z,4.30
2023-02-11T07:01:20.279Z,4.20
2023-02-11T07:04:23.230Z,4.20
2023-02-11T07:07:26.048Z,4.50
2023-02-11T07:10:30.678Z,4.10
2023-02-11T07:13:33.806Z,3.83
2023-02-11T07:16:37.105Z,4.60
2023-02-11T07:19:40.010Z,4.15
2023-02-11T07:22:42.878Z,3.90
2023-02-11T07:25:46.995Z,4.00
2023-02-11T07:28:50.146Z,4.05
2023-02-11T07:31:53.042Z,4.03
2023-02-11T07:34:55.970Z,4.30
2023-02-11T07:37:58.835Z,4.10
2023-02-11T07:41:03.445Z,4.43
2023-02-11T07:44:07.268Z,4.60
2023-02-11T07:47:10.330Z,4.15
2023-02-11T07:50:13.200Z,4.05
2023-02-11T07:53:16.234Z,4.15
2023-02-11T07:56:21.659Z,4.05
2023-02-11T07:59:24.940Z,4.15
2023-02-11T08:02:27.910Z,4.05
2023-02-11T08:05:31.122Z,4.00
2023-02-11T08:08:34.211Z,4.07
2023-02-11T08:11:38.554Z,4.18
2023-02-11T08:14:41.383Z,3.80
2023-02-11T08:17:44.235Z,4.43
2023-02-11T08:20:47.063Z,4.40
2023-02-11T08:23:50.473Z,4.35
2023-02-11T08:26:54.746Z,4.65
2023-02-11T08:29:59.909Z,4.18
2023-02-11T08:33:03.108Z,4.20
2023-02-11T08:36:10.252Z,4.38
2023-02-11T08:39:19.676Z,4.35
2023-02-11T08:42:24.690Z,4.85
2023-02-11T08:45:27.639Z,4.13
2023-02-11T08:48:30.811Z,3.90
2023-02-11T08:51:33.798Z,3.88
2023-02-11T08:54:36.709Z,4.55
2023-02-11T08:57:41.300Z,4.20
2023-02-11T09:00:45.329Z,4.07
2023-02-11T09:03:48.806Z,4.28
2023-02-11T09:06:51.759Z,4.03
2023-02-11T09:09:54.716Z,4.32
2023-02-11T09:12:58.943Z,3.95
2023-02-11T09:16:03.166Z,4.57
2023-02-11T09:19:06.648Z,3.75
2023-02-11T09:22:09.624Z,4.35
2023-02-11T09:25:12.535Z,4.95
2023-02-11T09:28:16.835Z,3.90
2023-02-11T09:31:22.676Z,4.43
2023-02-11T09:34:25.565Z,4.05
2023-02-11T09:37:28.367Z,3.90
2023-02-11T09:40:31.408Z,3.83
2023-02-11T09:43:40.396Z,4.00
2023-02-11T09:46:44.187Z,3.30
2023-02-11T09:49:51.150Z,3.60
2023-02-11T09:52:59.656Z,3.95
2023-02-11T09:56:05.884Z,3.85
2023-02-11T09:59:16.238Z,3.60
2023-02-11T10:02:28.467Z,3.55
2023-02-11T10:05:44.183Z,3.30
2023-02-11T10:08:59.567Z,3.72
2023-02-11T10:12:27.168Z,3.60
2023-02-11T10:15:41.035Z,3.55
2023-02-11T10:18:59.507Z,3.40
2023-02-11T10:22:11.027Z,3.42
2023-02-11T10:25:22.168Z,3.45
2023-02-11T10:28:30.821Z,3.58
2023-02-11T10:31:41.312Z,3.20
2023-02-11T10:34:44.237Z,3.65
2023-02-11T10:37:47.202Z,3.35
2023-02-11T10:40:50.398Z,4.10
2023-02-11T10:43:53.895Z,4.07
2023-02-11T10:47:00.879Z,4.07
2023-02-11T10:50:19.678Z,3.67
2023-02-11T10:53:24.375Z,3.97
2023-02-11T10:56:29.194Z,3.55
2023-02-11T10:59:38.372Z,3.90
2023-02-11T11:02:46.205Z,4.05
2023-02-11T11:05:51.407Z,3.88
2023-02-11T11:08:54.378Z,4.00
2023-02-11T11:11:58.058Z,3.97
2023-02-11T11:15:03.842Z,4.30
2023-02-11T11:18:21.945Z,4.15
2023-02-11T11:21:27.524Z,3.92
2023-02-11T11:24:35.334Z,3.72
2023-02-11T11:27:38.338Z,3.95
2023-02-11T11:30:44.708Z,4.22
2023-02-11T11:33:52.452Z,3.70
2023-02-11T11:36:57.390Z,4.20
2023-02-11T11:40:03.914Z,3.75
2023-02-11T11:43:20.219Z,4.10
2023-02-11T11:46:29.718Z,3.70
2023-02-11T11:49:37.135Z,3.95
2023-02-11T11:52:47.486Z,4.43
2023-02-11T11:55:59.654Z,4.20
2023-02-11T11:59:10.389Z,4.10
2023-02-11T12:02:36.511Z,7.68
2023-02-11T12:05:46.431Z,6.63
2023-02-11T12:09:03.115Z,7.13
2023-02-11T12:12:29.324Z,6.20
2023-02-11T12:15:39.289Z,6.55
2023-02-11T12:19:02.927Z,6.00
2023-02-11T12:22:11.979Z,5.57
2023-02-11T12:25:27.240Z,6.60
2023-02-11T12:28:39.528Z,6.07
2023-02-11T12:31:56.952Z,6.25
2023-02-11T12:35:26.053Z,5.63
2023-02-11T12:38:58.779Z,5.95
2023-02-11T12:42:35.886Z,4.70
2023-02-11T12:46:03.472Z,4.85
2023-02-11T12:49:25.317Z,5.20
2023-02-11T12:52:46.217Z,4.20
2023-02-11T12:55:55.612Z,4.57
2023-02-11T12:59:01.729Z,3.60
2023-02-11T13:02:12.489Z,4.05
2023-02-11T13:05:28.065Z,3.70
2023-02-11T13:08:34.820Z,4.43
2023-02-11T13:11:44.246Z,4.28
2023-02-11T13:14:51.077Z,4.55
2023-02-11T13:18:01.346Z,4.28
2023-02-11T13:21:23.369Z,4.68
2023-02-11T13:24:33.643Z,3.60
2023-02-11T13:27:46.612Z,3.65
2023-02-11T13:30:57.695Z,3.92
2023-02-11T13:34:00.921Z,3.58
2023-02-11T13:37:03.815Z,3.20
2023-02-11T13:40:21.252Z,3.42
2023-02-11T13:43:28.752Z,3.38
2023-02-11T13:46:50.800Z,4.30
2023-02-11T13:49:54.520Z,5.70
2023-02-11T13:53:02.692Z,5.47
2023-02-11T13:56:08.870Z,6.45
2023-02-11T13:59:44.307Z,8.10
2023-02-11T14:03:43.318Z,8.55
2023-02-11T14:07:33.094Z,13.45
2023-02-11T14:10:53.716Z,26.33
2023-02-11T14:14:13.927Z,42.10
2023-02-11T14:17:21.269Z,49.55
2023-02-11T14:20:44.574Z,49.05
2023-02-11T14:23:48.456Z,41.30
2023-02-11T14:26:55.416Z,42.70
2023-02-11T14:30:33.730Z,42.92
2023-02-11T14:34:06.187Z,40.58
2023-02-11T14:37:23.631Z,40.70
2023-02-11T14:40:30.850Z,39.05
2023-02-11T14:43:39.523Z,37.85
2023-02-11T14:46:46.798Z,37.85
2023-02-11T14:49:50.957Z,37.03
2023-02-11T14:52:56.881Z,36.20
2023-02-11T14:55:59.759Z,37.22
2023-02-11T14:59:03.649Z,34.53
2023-02-11T15:02:21.966Z,33.47
2023-02-11T15:05:27.231Z,34.25
2023-02-11T15:08:32.908Z,33.53
2023-02-11T15:11:40.471Z,34.33
2023-02-11T15:14:47.941Z,33.20
2023-02-11T15:17:51.469Z,32.38
2023-02-11T15:20:54.659Z,30.70
2023-02-11T15:24:01.640Z,28.80
2023-02-11T15:27:12.982Z,27.52
2023-02-11T15:30:26.946Z,27.45
2023-02-11T15:33:32.022Z,29.88
2023-02-11T15:36:36.368Z,27.65
2023-02-11T15:39:42.071Z,27.05
2023-02-11T15:42:58.346Z,27.92
2023-02-11T15:46:02.978Z,28.58
2023-02-11T15:49:08.579Z,29.67
2023-02-11T15:52:12.439Z,29.88
2023-02-11T15:55:18.856Z,29.98
2023-02-11T15:58:24.253Z,30.08
2023-02-11T16:01:33.842Z,29.55
2023-02-11T16:04:38.473Z,29.05
2023-02-11T16:07:44.672Z,29.02
2023-02-11T16:10:58.655Z,27.25
2023-02-11T16:14:05.206Z,28.25
2023-02-11T16:17:12.226Z,29.08
2023-02-11T16:20:19.958Z,29.25
2023-02-11T16:23:26.539Z,27.65
2023-02-11T16:26:34.599Z,27.92
2023-02-11T16:29:38.233Z,26.77
2023-02-11T16:32:41.411Z,27.05
2023-02-11T16:35:47.606Z,27.85
2023-02-11T16:38:50.550Z,27.48
2023-02-11T16:41:55.828Z,26.27
2023-02-11T16:44:59.770Z,26.95
2023-02-11T16:48:03.106Z,24.85
2023-02-11T16:51:09.190Z,25.50
2023-02-11T16:54:15.442Z,24.73
2023-02-11T16:57:21.811Z,25.30
2023-02-11T17:00:25.306Z,23.92
2023-02-11T17:03:30.143Z,24.10
2023-02-11T17:06:34.478Z,23.67
2023-02-11T17:09:37.771Z,21.02
2023-02-11T17:12:41.982Z,19.33
2023-02-11T17:15:44.890Z,20.10
2023-02-11T17:18:47.813Z,18.92
2023-02-11T17:21:52.687Z,17.42
2023-02-11T17:24:57.387Z,18.40
2023-02-11T17:28:01.717Z,16.95
2023-02-11T17:31:09.974Z,17.38
2023-02-11T17:34:14.461Z,16.48
2023-02-11T17:37:17.528Z,16.63
2023-02-11T17:40:21.764Z,16.38
2023-02-11T17:43:26.586Z,146.60
2023-02-11T17:46:29.742Z,161.88
2023-02-11T17:49:32.850Z,65.45
2023-02-11T17:52:36.716Z,33.45
2023-02-11T17:55:40.171Z,30.77
2023-02-11T17:58:44.671Z,34.85
2023-02-11T18:01:47.950Z,34.40
2023-02-11T18:04:52.329Z,35.13
2023-02-11T18:07:56.729Z,34.38
2023-02-11T18:10:59.732Z,34.45
2023-02-11T18:14:07.605Z,34.60
2023-02-11T18:17:10.532Z,33.30
2023-02-11T18:20:14.243Z,31.60
2023-02-11T18:23:17.120Z,31.88
2023-02-11T18:26:22.255Z,31.50
2023-02-11T18:29:26.633Z,32.67
2023-02-11T18:32:29.506Z,30.73
2023-02-11T18:35:32.385Z,31.27
2023-02-11T18:38:35.502Z,30.05
2023-02-11T18:41:40.689Z,28.17
2023-02-11T18:44:45.186Z,28.13
2023-02-11T18:47:48.036Z,28.75
2023-02-11T18:50:50.975Z,27.35
2023-02-11T18:53:54.647Z,28.35
2023-02-11T18:56:57.560Z,27.02
2023-02-11T19:00:01.891Z,27.30
2023-02-11T19:03:04.988Z,24.85
2023-02-11T19:06:09.116Z,24.65
2023-02-11T19:09:15.622Z,25.80
2023-02-11T19:12:18.905Z,24.77
2023-02-11T19:15:23.388Z,24.70
2023-02-11T19:18:26.235Z,26.00
2023-02-11T19:21:29.514Z,24.27
2023-02-11T19:24:32.963Z,24.42
2023-02-11T19:27:35.951Z,22.58
2023-02-11T19:30:40.258Z,23.80
2023-02-11T19:33:43.251Z,23.00
2023-02-11T19:36:46.040Z,22.98
2023-02-11T19:39:48.877Z,21.52
2023-02-11T19:42:52.205Z,23.98
2023-02-11T19:45:57.535Z,21.63
2023-02-11T19:49:01.462Z,23.17
2023-02-11T19:52:04.496Z,21.38
2023-02-11T19:55:08.595Z,21.65
2023-02-11T19:58:11.514Z,22.55
2023-02-11T20:01:18.385Z,21.80
2023-02-11T20:04:21.310Z,21.60
2023-02-11T20:07:24.083Z,18.92
2023-02-11T20:10:27.802Z,15.55
2023-02-11T20:13:30.680Z,13.38
2023-02-11T20:16:47.379Z,10.90
2023-02-11T20:19:51.398Z,8.77
2023-02-11T20:22:54.258Z,9.55
2023-02-11T20:25:57.190Z,9.43
2023-02-11T20:29:02.218Z,9.95
2023-02-11T20:32:06.740Z,9.32
2023-02-11T20:35:10.897Z,9.18
2023-02-11T20:38:14.143Z,9.45
2023-02-11T20:41:19.396Z,9.32
2023-02-11T20:44:22.789Z,9.10
2023-02-11T20:47:27.108Z,8.75
2023-02-11T20:50:29.988Z,9.02
2023-02-11T20:53:35.608Z,9.13
2023-02-11T20:56:39.588Z,8.70
2023-02-11T20:59:42.541Z,8.43
2023-02-11T21:02:46.772Z,8.68
2023-02-11T21:05:49.622Z,8.82
2023-02-11T21:08:52.532Z,8.35
2023-02-11T21:11:56.225Z,8.13
2023-02-11T21:14:59.072Z,8.18
2023-02-11T21:18:03.261Z,8.27
2023-02-11T21:21:07.119Z,8.32
2023-02-11T21:24:11.368Z,8.77
2023-02-11T21:27:14.245Z,8.52
2023-02-11T21:30:17.460Z,8.02
2023-02-11T21:33:22.012Z,8.57
2023-02-11T21:36:25.275Z,8.15
2023-02-11T21:39:28.256Z,7.88
2023-02-11T21:42:31.179Z,7.40
2023-02-11T21:45:34.259Z,7.82
2023-02-11T21:48:39.578Z,8.02
2023-02-11T21:51:42.718Z,7.13
2023-02-11T21:54:46.076Z,6.82
2023-02-11T21:57:48.930Z,7.53
2023-02-11T22:00:51.868Z,6.63
2023-02-11T22:03:56.147Z,6.85
2023-02-11T22:06:59.079Z,6.90
2023-02-11T22:10:02.007Z,6.07
2023-02-11T22:13:04.945Z,6.70
2023-02-11T22:16:10.481Z,6.80
2023-02-11T22:19:14.982Z,6.85
2023-02-11T22:22:19.604Z,6.28
2023-02-11T22:25:22.472Z,7.07
2023-02-11T22:28:26.391Z,6.22
2023-02-11T22:31:32.131Z,6.72
2023-02-11T22:34:37.000Z,6.88
2023-02-11T22:37:39.976Z,6.00
2023-02-11T22:40:43.766Z,6.93
2023-02-11T22:43:46.879Z,6.10
2023-02-11T22:46:50.316Z,6.20
2023-02-11T22:49:54.593Z,6.32
2023-02-11T22:52:57.794Z,5.55
2023-02-11T22:56:03.680Z,5.65
2023-02-11T22:59:09.600Z,6.20
2023-02-11T23:02:12.556Z,6.10
2023-02-11T23:05:17.225Z,6.03
2023-02-11T23:08:20.087Z,6.22
2023-02-11T23:11:28.636Z,5.30
2023-02-11T23:14:31.520Z,5.90
2023-02-11T23:17:34.363Z,5.90
2023-02-11T23:20:44.298Z,5.55
2023-02-11T23:23:47.200Z,5.55
2023-02-11T23:26:50.219Z,5.85
2023-02-11T23:29:56.180Z,5.60
2023-02-11T23:32:59.083Z,6.00
2023-02-11T23:36:03.266Z,5.20
2023-02-11T23:39:06.523Z,5.18
2023-02-11T23:42:09.530Z,5.10
2023-02-11T23:45:12.981Z,4.93
2023-02-11T23:48:15.811Z,4.38
2023-02-11T23:51:20.683Z,4.70
2023-02-11T23:54:23.815Z,4.55
2023-02-11T23:57:26.756Z,4.38
